sensor_id;sensor_type;location;lat;lon;timestamp;temperature;humidity
506;DHT22;551;48.524;9.056;2023-02-25T00:00:07;7.10;1.00
506;DHT22;551;48.524;9.056;2023-02-25T00:02:44;7.20;1.00
506;DHT22;551;48.524;9.056;2023-02-25T00:05:10;7.10;1.00
506;DHT22;551;48.524;9.056;2023-02-25T00:07:36;7.10;1.00
506;DHT22;551;48.524;9.056;2023-02-25T00:10:02;7.20;1.00
506;DHT22;551;48.524;9.056;2023-02-25T00:12:29;7.10;1.00
506;DHT22;551;48.524;9.056;2023-02-25T00:14:54;7.10;1.00
506;DHT22;551;48.524;9.056;2023-02-25T00:17:20;7.10;1.00
506;DHT22;551;48.524;9.056;2023-02-25T00:19:46;7.10;1.00
506;DHT22;551;48.524;9.056;2023-02-25T00:22:11;7.10;1.00
506;DHT22;551;48.524;9.056;2023-02-25T00:24:37;7.10;1.00
506;DHT22;551;48.524;9.056;2023-02-25T00:27:03;7.00;1.00
506;DHT22;551;48.524;9.056;2023-02-25T00:29:28;7.00;1.00
506;DHT22;551;48.524;9.056;2023-02-25T00:31:54;7.00;1.00
506;DHT22;551;48.524;9.056;2023-02-25T00:34:20;7.00;1.00
506;DHT22;551;48.524;9.056;2023-02-25T00:36:45;7.00;1.00
506;DHT22;551;48.524;9.056;2023-02-25T00:39:11;7.10;1.00
506;DHT22;551;48.524;9.056;2023-02-25T00:41:37;7.10;1.00
506;DHT22;551;48.524;9.056;2023-02-25T00:44:03;7.00;1.00
506;DHT22;551;48.524;9.056;2023-02-25T00:46:30;7.00;1.00
506;DHT22;551;48.524;9.056;2023-02-25T00:48:55;7.10;1.00
506;DHT22;551;48.524;9.056;2023-02-25T00:51:24;6.90;1.00
506;DHT22;551;48.524;9.056;2023-02-25T00:53:50;6.90;1.00
506;DHT22;551;48.524;9.056;2023-02-25T00:56:16;6.90;1.00
506;DHT22;551;48.524;9.056;2023-02-25T00:58:45;6.90;1.00
506;DHT22;551;48.524;9.056;2023-02-25T01:01:17;6.90;1.00
506;DHT22;551;48.524;9.056;2023-02-25T01:03:43;6.90;1.00
506;DHT22;551;48.524;9.056;2023-02-25T01:06:09;7.00;1.00
506;DHT22;551;48.524;9.056;2023-02-25T01:08:34;7.00;1.00
506;DHT22;551;48.524;9.056;2023-02-25T01:11:13;7.00;1.00
506;DHT22;551;48.524;9.056;2023-02-25T01:13:39;6.90;1.00
506;DHT22;551;48.524;9.056;2023-02-25T01:16:13;6.90;1.00
506;DHT22;551;48.524;9.056;2023-02-25T01:18:40;6.80;1.00
506;DHT22;551;48.524;9.056;2023-02-25T01:21:06;6.80;1.00
506;DHT22;551;48.524;9.056;2023-02-25T01:23:32;6.80;1.00
506;DHT22;551;48.524;9.056;2023-02-25T01:25:57;6.80;1.00
506;DHT22;551;48.524;9.056;2023-02-25T01:28:23;6.80;1.00
506;DHT22;551;48.524;9.056;2023-02-25T01:30:48;6.80;1.00
506;DHT22;551;48.524;9.056;2023-02-25T01:33:14;6.80;1.00
506;DHT22;551;48.524;9.056;2023-02-25T01:35:39;6.80;1.00
506;DHT22;551;48.524;9.056;2023-02-25T01:38:05;6.90;1.00
506;DHT22;551;48.524;9.056;2023-02-25T01:40:30;6.90;1.00
506;DHT22;551;48.524;9.056;2023-02-25T01:42:56;6.90;1.00
506;DHT22;551;48.524;9.056;2023-02-25T01:45:26;6.90;1.00
506;DHT22;551;48.524;9.056;2023-02-25T01:48:02;6.90;1.00
506;DHT22;551;48.524;9.056;2023-02-25T01:50:35;6.90;1.00
506;DHT22;551;48.524;9.056;2023-02-25T01:53:02;7.00;1.00
506;DHT22;551;48.524;9.056;2023-02-25T01:55:29;7.00;1.00
506;DHT22;551;48.524;9.056;2023-02-25T01:57:56;6.90;1.00
506;DHT22;551;48.524;9.056;2023-02-25T02:00:23;6.90;1.00
506;DHT22;551;48.524;9.056;2023-02-25T02:02:51;7.00;1.00
506;DHT22;551;48.524;9.056;2023-02-25T02:05:17;7.00;1.00
506;DHT22;551;48.524;9.056;2023-02-25T02:07:43;7.00;1.00
506;DHT22;551;48.524;9.056;2023-02-25T02:10:09;7.00;1.00
506;DHT22;551;48.524;9.056;2023-02-25T02:12:38;7.10;1.00
506;DHT22;551;48.524;9.056;2023-02-25T02:15:08;7.20;1.00
506;DHT22;551;48.524;9.056;2023-02-25T02:17:48;7.10;1.00
506;DHT22;551;48.524;9.056;2023-02-25T02:20:21;7.10;1.00
506;DHT22;551;48.524;9.056;2023-02-25T02:31:30;6.90;1.00
506;DHT22;551;48.524;9.056;2023-02-25T02:34:10;6.90;1.00
506;DHT22;551;48.524;9.056;2023-02-25T02:39:46;6.80;1.00
506;DHT22;551;48.524;9.056;2023-02-25T02:45:02;6.80;1.00
506;DHT22;551;48.524;9.056;2023-02-25T02:47:38;6.90;1.00
506;DHT22;551;48.524;9.056;2023-02-25T02:50:14;6.90;1.00
506;DHT22;551;48.524;9.056;2023-02-25T02:52:47;6.80;1.00
506;DHT22;551;48.524;9.056;2023-02-25T02:55:28;6.90;1.00
506;DHT22;551;48.524;9.056;2023-02-25T02:58:03;6.90;1.00
506;DHT22;551;48.524;9.056;2023-02-25T03:00:38;6.90;1.00
506;DHT22;551;48.524;9.056;2023-02-25T03:03:26;6.90;1.00
506;DHT22;551;48.524;9.056;2023-02-25T03:06:02;6.80;1.00
506;DHT22;551;48.524;9.056;2023-02-25T03:08:31;6.80;1.00
506;DHT22;551;48.524;9.056;2023-02-25T03:10:57;6.80;1.00
506;DHT22;551;48.524;9.056;2023-02-25T03:13:23;6.80;1.00
506;DHT22;551;48.524;9.056;2023-02-25T03:15:49;6.80;1.00
506;DHT22;551;48.524;9.056;2023-02-25T03:18:36;6.80;1.00
506;DHT22;551;48.524;9.056;2023-02-25T03:21:07;6.80;1.00
506;DHT22;551;48.524;9.056;2023-02-25T03:23:38;6.80;1.00
506;DHT22;551;48.524;9.056;2023-02-25T03:26:10;6.80;1.00
506;DHT22;551;48.524;9.056;2023-02-25T03:28:36;6.70;1.00
506;DHT22;551;48.524;9.056;2023-02-25T03:31:14;6.70;1.00
506;DHT22;551;48.524;9.056;2023-02-25T03:33:55;6.70;1.00
506;DHT22;551;48.524;9.056;2023-02-25T03:36:27;6.70;1.00
506;DHT22;551;48.524;9.056;2023-02-25T03:38:58;6.70;1.00
506;DHT22;551;48.524;9.056;2023-02-25T03:41:29;6.70;1.00
506;DHT22;551;48.524;9.056;2023-02-25T03:44:00;6.70;1.00
506;DHT22;551;48.524;9.056;2023-02-25T03:46:28;6.70;1.00
506;DHT22;551;48.524;9.056;2023-02-25T03:48:55;6.60;1.00
506;DHT22;551;48.524;9.056;2023-02-25T03:51:26;6.60;1.00
506;DHT22;551;48.524;9.056;2023-02-25T03:53:52;6.50;1.00
506;DHT22;551;48.524;9.056;2023-02-25T03:56:18;6.50;1.00
506;DHT22;551;48.524;9.056;2023-02-25T03:58:44;6.50;1.00
506;DHT22;551;48.524;9.056;2023-02-25T04:01:23;6.50;1.00
506;DHT22;551;48.524;9.056;2023-02-25T04:03:50;6.50;1.00
506;DHT22;551;48.524;9.056;2023-02-25T04:06:21;6.50;1.00
506;DHT22;551;48.524;9.056;2023-02-25T04:08:47;6.60;1.00
506;DHT22;551;48.524;9.056;2023-02-25T04:11:13;6.60;1.00
506;DHT22;551;48.524;9.056;2023-02-25T04:13:38;6.60;1.00
506;DHT22;551;48.524;9.056;2023-02-25T04:16:04;6.60;1.00
506;DHT22;551;48.524;9.056;2023-02-25T04:18:30;6.70;1.00
506;DHT22;551;48.524;9.056;2023-02-25T04:20:56;6.70;1.00
506;DHT22;551;48.524;9.056;2023-02-25T04:23:21;6.70;1.00
506;DHT22;551;48.524;9.056;2023-02-25T04:25:47;6.70;1.00
506;DHT22;551;48.524;9.056;2023-02-25T04:28:13;6.80;1.00
506;DHT22;551;48.524;9.056;2023-02-25T04:30:38;6.70;1.00
506;DHT22;551;48.524;9.056;2023-02-25T04:33:04;6.70;1.00
506;DHT22;551;48.524;9.056;2023-02-25T04:35:29;6.70;1.00
506;DHT22;551;48.524;9.056;2023-02-25T04:37:55;6.70;1.00
506;DHT22;551;48.524;9.056;2023-02-25T04:40:21;6.60;1.00
506;DHT22;551;48.524;9.056;2023-02-25T04:42:48;6.60;1.00
506;DHT22;551;48.524;9.056;2023-02-25T04:45:14;6.50;1.00
506;DHT22;551;48.524;9.056;2023-02-25T04:47:40;6.40;1.00
506;DHT22;551;48.524;9.056;2023-02-25T04:50:07;6.30;1.00
506;DHT22;551;48.524;9.056;2023-02-25T04:52:34;6.40;1.00
506;DHT22;551;48.524;9.056;2023-02-25T04:54:59;6.40;1.00
506;DHT22;551;48.524;9.056;2023-02-25T04:57:25;6.40;1.00
506;DHT22;551;48.524;9.056;2023-02-25T04:59:50;6.30;1.00
506;DHT22;551;48.524;9.056;2023-02-25T05:02:16;6.40;1.00
506;DHT22;551;48.524;9.056;2023-02-25T05:04:42;6.40;1.00
506;DHT22;551;48.524;9.056;2023-02-25T05:07:08;6.40;1.00
506;DHT22;551;48.524;9.056;2023-02-25T05:09:34;6.30;1.00
506;DHT22;551;48.524;9.056;2023-02-25T05:12:00;6.30;1.00
506;DHT22;551;48.524;9.056;2023-02-25T05:14:26;6.30;1.00
506;DHT22;551;48.524;9.056;2023-02-25T05:16:51;6.20;1.00
506;DHT22;551;48.524;9.056;2023-02-25T05:19:18;6.10;1.00
506;DHT22;551;48.524;9.056;2023-02-25T05:21:46;6.10;1.00
506;DHT22;551;48.524;9.056;2023-02-25T05:24:11;6.10;1.00
506;DHT22;551;48.524;9.056;2023-02-25T05:26:37;6.00;1.00
506;DHT22;551;48.524;9.056;2023-02-25T05:29:02;6.00;1.00
506;DHT22;551;48.524;9.056;2023-02-25T05:31:28;6.10;1.00
506;DHT22;551;48.524;9.056;2023-02-25T05:33:54;6.10;1.00
506;DHT22;551;48.524;9.056;2023-02-25T05:36:19;6.10;1.00
506;DHT22;551;48.524;9.056;2023-02-25T05:38:45;6.10;1.00
506;DHT22;551;48.524;9.056;2023-02-25T05:41:12;6.10;1.00
506;DHT22;551;48.524;9.056;2023-02-25T05:43:38;6.10;1.00
506;DHT22;551;48.524;9.056;2023-02-25T05:46:05;6.10;1.00
506;DHT22;551;48.524;9.056;2023-02-25T05:48:36;6.10;1.00
506;DHT22;551;48.524;9.056;2023-02-25T05:51:07;6.20;1.00
506;DHT22;551;48.524;9.056;2023-02-25T05:53:33;6.10;1.00
506;DHT22;551;48.524;9.056;2023-02-25T05:56:01;6.10;1.00
506;DHT22;551;48.524;9.056;2023-02-25T05:58:27;6.20;1.00
506;DHT22;551;48.524;9.056;2023-02-25T06:00:52;6.10;1.00
506;DHT22;551;48.524;9.056;2023-02-25T06:03:18;5.90;1.00
506;DHT22;551;48.524;9.056;2023-02-25T06:05:43;5.90;1.00
506;DHT22;551;48.524;9.056;2023-02-25T06:08:10;5.80;1.00
506;DHT22;551;48.524;9.056;2023-02-25T06:10:38;5.70;1.00
506;DHT22;551;48.524;9.056;2023-02-25T06:13:05;5.60;1.00
506;DHT22;551;48.524;9.056;2023-02-25T06:15:31;5.50;1.00
506;DHT22;551;48.524;9.056;2023-02-25T06:17:57;5.40;1.00
506;DHT22;551;48.524;9.056;2023-02-25T06:20:22;5.40;1.00
506;DHT22;551;48.524;9.056;2023-02-25T06:22:50;5.30;1.00
506;DHT22;551;48.524;9.056;2023-02-25T06:25:16;5.30;1.00
506;DHT22;551;48.524;9.056;2023-02-25T06:27:41;5.30;1.00
506;DHT22;551;48.524;9.056;2023-02-25T06:30:07;5.30;1.00
506;DHT22;551;48.524;9.056;2023-02-25T06:32:33;5.30;1.00
506;DHT22;551;48.524;9.056;2023-02-25T06:34:59;5.30;1.00
506;DHT22;551;48.524;9.056;2023-02-25T06:37:24;5.40;1.00
506;DHT22;551;48.524;9.056;2023-02-25T06:39:51;5.30;1.00
506;DHT22;551;48.524;9.056;2023-02-25T06:42:16;5.30;1.00
506;DHT22;551;48.524;9.056;2023-02-25T06:44:42;5.20;1.00
506;DHT22;551;48.524;9.056;2023-02-25T06:47:07;5.20;1.00
506;DHT22;551;48.524;9.056;2023-02-25T06:49:33;5.20;1.00
506;DHT22;551;48.524;9.056;2023-02-25T06:51:59;5.20;1.00
506;DHT22;551;48.524;9.056;2023-02-25T06:54:24;5.20;1.00
506;DHT22;551;48.524;9.056;2023-02-25T06:56:50;5.30;1.00
506;DHT22;551;48.524;9.056;2023-02-25T06:59:17;5.40;1.00
506;DHT22;551;48.524;9.056;2023-02-25T07:01:43;5.40;1.00
506;DHT22;551;48.524;9.056;2023-02-25T07:04:14;5.40;1.00
506;DHT22;551;48.524;9.056;2023-02-25T07:06:40;5.50;1.00
506;DHT22;551;48.524;9.056;2023-02-25T07:09:05;5.50;1.00
506;DHT22;551;48.524;9.056;2023-02-25T07:11:31;5.60;1.00
506;DHT22;551;48.524;9.056;2023-02-25T07:13:59;5.70;1.00
506;DHT22;551;48.524;9.056;2023-02-25T07:16:25;5.70;1.00
506;DHT22;551;48.524;9.056;2023-02-25T07:18:51;5.80;1.00
506;DHT22;551;48.524;9.056;2023-02-25T07:21:16;5.80;1.00
506;DHT22;551;48.524;9.056;2023-02-25T07:23:43;5.90;1.00
506;DHT22;551;48.524;9.056;2023-02-25T07:26:10;6.00;1.00
506;DHT22;551;48.524;9.056;2023-02-25T07:28:36;6.10;1.00
506;DHT22;551;48.524;9.056;2023-02-25T07:31:07;6.20;1.00
506;DHT22;551;48.524;9.056;2023-02-25T07:33:33;6.40;1.00
506;DHT22;551;48.524;9.056;2023-02-25T07:35:58;6.70;1.00
506;DHT22;551;48.524;9.056;2023-02-25T07:38:24;6.90;1.00
506;DHT22;551;48.524;9.056;2023-02-25T07:40:49;7.30;1.00
506;DHT22;551;48.524;9.056;2023-02-25T07:43:15;7.80;1.00
506;DHT22;551;48.524;9.056;2023-02-25T07:45:40;8.80;1.00
506;DHT22;551;48.524;9.056;2023-02-25T07:48:06;9.80;1.00
506;DHT22;551;48.524;9.056;2023-02-25T07:50:32;10.20;1.00
506;DHT22;551;48.524;9.056;2023-02-25T07:52:58;10.50;1.00
506;DHT22;551;48.524;9.056;2023-02-25T07:55:23;11.30;1.00
506;DHT22;551;48.524;9.056;2023-02-25T07:57:49;12.60;1.00
506;DHT22;551;48.524;9.056;2023-02-25T08:00:15;13.30;1.00
506;DHT22;551;48.524;9.056;2023-02-25T08:02:42;12.90;1.00
506;DHT22;551;48.524;9.056;2023-02-25T08:05:09;12.30;1.00
506;DHT22;551;48.524;9.056;2023-02-25T08:07:34;12.10;1.00
506;DHT22;551;48.524;9.056;2023-02-25T08:10:00;13.20;1.00
506;DHT22;551;48.524;9.056;2023-02-25T08:12:26;15.10;1.00
506;DHT22;551;48.524;9.056;2023-02-25T08:14:51;16.90;1.00
506;DHT22;551;48.524;9.056;2023-02-25T08:17:17;18.70;1.00
506;DHT22;551;48.524;9.056;2023-02-25T08:19:43;19.50;1.00
506;DHT22;551;48.524;9.056;2023-02-25T08:22:08;20.70;1.00
506;DHT22;551;48.524;9.056;2023-02-25T08:24:40;20.40;1.00
506;DHT22;551;48.524;9.056;2023-02-25T08:27:06;19.40;1.00
506;DHT22;551;48.524;9.056;2023-02-25T08:29:35;17.70;1.00
506;DHT22;551;48.524;9.056;2023-02-25T08:32:02;16.80;1.00
506;DHT22;551;48.524;9.056;2023-02-25T08:34:27;17.40;1.00
506;DHT22;551;48.524;9.056;2023-02-25T08:36:53;18.70;1.00
506;DHT22;551;48.524;9.056;2023-02-25T08:39:18;20.00;1.00
506;DHT22;551;48.524;9.056;2023-02-25T08:41:44;21.40;1.00
506;DHT22;551;48.524;9.056;2023-02-25T08:44:10;21.80;1.00
506;DHT22;551;48.524;9.056;2023-02-25T08:46:36;20.90;1.00
506;DHT22;551;48.524;9.056;2023-02-25T08:49:02;19.80;1.00
506;DHT22;551;48.524;9.056;2023-02-25T08:51:29;18.90;1.00
506;DHT22;551;48.524;9.056;2023-02-25T08:53:59;17.00;1.00
506;DHT22;551;48.524;9.056;2023-02-25T08:56:26;15.80;1.00
506;DHT22;551;48.524;9.056;2023-02-25T08:58:53;14.70;1.00
506;DHT22;551;48.524;9.056;2023-02-25T09:01:18;13.70;1.00
506;DHT22;551;48.524;9.056;2023-02-25T09:03:46;12.90;1.00
506;DHT22;551;48.524;9.056;2023-02-25T09:06:26;12.10;1.00
506;DHT22;551;48.524;9.056;2023-02-25T09:08:54;11.30;1.00
506;DHT22;551;48.524;9.056;2023-02-25T09:11:21;10.80;1.00
506;DHT22;551;48.524;9.056;2023-02-25T09:13:47;10.50;1.00
506;DHT22;551;48.524;9.056;2023-02-25T09:16:13;10.40;1.00
506;DHT22;551;48.524;9.056;2023-02-25T09:18:42;10.10;1.00
506;DHT22;551;48.524;9.056;2023-02-25T09:21:08;9.80;1.00
506;DHT22;551;48.524;9.056;2023-02-25T09:23:35;9.70;1.00
506;DHT22;551;48.524;9.056;2023-02-25T09:26:02;9.30;1.00
506;DHT22;551;48.524;9.056;2023-02-25T09:28:28;9.20;1.00
506;DHT22;551;48.524;9.056;2023-02-25T09:30:55;9.10;1.00
506;DHT22;551;48.524;9.056;2023-02-25T09:33:21;8.90;1.00
506;DHT22;551;48.524;9.056;2023-02-25T09:35:46;8.80;1.00
506;DHT22;551;48.524;9.056;2023-02-25T09:38:12;8.80;1.00
506;DHT22;551;48.524;9.056;2023-02-25T09:40:39;8.90;1.00
506;DHT22;551;48.524;9.056;2023-02-25T09:43:24;9.10;1.00
506;DHT22;551;48.524;9.056;2023-02-25T09:45:54;9.50;1.00
506;DHT22;551;48.524;9.056;2023-02-25T09:48:30;9.80;1.00
506;DHT22;551;48.524;9.056;2023-02-25T09:51:05;10.20;1.00
506;DHT22;551;48.524;9.056;2023-02-25T09:53:43;10.60;1.00
506;DHT22;551;48.524;9.056;2023-02-25T09:56:12;11.00;1.00
506;DHT22;551;48.524;9.056;2023-02-25T09:58:43;11.60;1.00
506;DHT22;551;48.524;9.056;2023-02-25T10:01:17;11.90;1.00
506;DHT22;551;48.524;9.056;2023-02-25T10:04:07;12.20;1.00
506;DHT22;551;48.524;9.056;2023-02-25T10:09:33;12.90;1.00
506;DHT22;551;48.524;9.056;2023-02-25T10:12:20;13.10;1.00
506;DHT22;551;48.524;9.056;2023-02-25T10:20:24;12.80;1.00
506;DHT22;551;48.524;9.056;2023-02-25T10:28:32;12.50;1.00
506;DHT22;551;48.524;9.056;2023-02-25T10:31:11;12.70;1.00
506;DHT22;551;48.524;9.056;2023-02-25T10:36:28;12.70;1.00
506;DHT22;551;48.524;9.056;2023-02-25T10:38:54;12.50;1.00
506;DHT22;551;48.524;9.056;2023-02-25T10:41:22;12.10;1.00
506;DHT22;551;48.524;9.056;2023-02-25T10:43:51;12.00;1.00
506;DHT22;551;48.524;9.056;2023-02-25T10:48:56;11.40;1.00
506;DHT22;551;48.524;9.056;2023-02-25T10:51:23;11.10;1.00
506;DHT22;551;48.524;9.056;2023-02-25T10:54:11;10.70;1.00
506;DHT22;551;48.524;9.056;2023-02-25T10:56:42;10.50;1.00
506;DHT22;551;48.524;9.056;2023-02-25T11:01:52;10.20;1.00
506;DHT22;551;48.524;9.056;2023-02-25T11:04:23;10.00;1.00
506;DHT22;551;48.524;9.056;2023-02-25T11:06:49;9.70;1.00
506;DHT22;551;48.524;9.056;2023-02-25T11:14:25;9.40;1.00
506;DHT22;551;48.524;9.056;2023-02-25T11:17:04;9.40;1.00
506;DHT22;551;48.524;9.056;2023-02-25T11:19:31;9.50;1.00
506;DHT22;551;48.524;9.056;2023-02-25T11:22:15;9.30;1.00
506;DHT22;551;48.524;9.056;2023-02-25T11:24:41;9.30;1.00
506;DHT22;551;48.524;9.056;2023-02-25T11:30:05;9.20;1.00
506;DHT22;551;48.524;9.056;2023-02-25T11:32:32;9.10;1.00
506;DHT22;551;48.524;9.056;2023-02-25T11:35:05;9.10;1.00
506;DHT22;551;48.524;9.056;2023-02-25T11:37:40;9.20;1.00
506;DHT22;551;48.524;9.056;2023-02-25T11:40:32;9.20;1.00
506;DHT22;551;48.524;9.056;2023-02-25T11:45:34;9.40;1.00
506;DHT22;551;48.524;9.056;2023-02-25T11:48:05;9.50;1.00
506;DHT22;551;48.524;9.056;2023-02-25T11:50:47;9.60;1.00
506;DHT22;551;48.524;9.056;2023-02-25T12:06:36;9.80;1.00
506;DHT22;551;48.524;9.056;2023-02-25T12:21:02;10.10;1.00
506;DHT22;551;48.524;9.056;2023-02-25T12:23:56;10.00;1.00
506;DHT22;551;48.524;9.056;2023-02-25T12:27:07;9.70;1.00
506;DHT22;551;48.524;9.056;2023-02-25T12:32:50;9.30;1.00
506;DHT22;551;48.524;9.056;2023-02-25T12:36:01;9.20;1.00
506;DHT22;551;48.524;9.056;2023-02-25T12:55:51;8.80;1.00
506;DHT22;551;48.524;9.056;2023-02-25T13:01:44;9.00;1.00
506;DHT22;551;48.524;9.056;2023-02-25T13:07:28;9.40;1.00
506;DHT22;551;48.524;9.056;2023-02-25T13:13:13;9.20;1.00
506;DHT22;551;48.524;9.056;2023-02-25T13:15:56;9.30;1.00
506;DHT22;551;48.524;9.056;2023-02-25T13:18:39;9.30;1.00
506;DHT22;551;48.524;9.056;2023-02-25T13:24:10;9.40;1.00
506;DHT22;551;48.524;9.056;2023-02-25T13:30:01;9.80;1.00
506;DHT22;551;48.524;9.056;2023-02-25T13:33:04;9.80;1.00
506;DHT22;551;48.524;9.056;2023-02-25T13:44:41;10.30;1.00
506;DHT22;551;48.524;9.056;2023-02-25T13:47:31;10.20;1.00
506;DHT22;551;48.524;9.056;2023-02-25T13:55:58;9.70;1.00
506;DHT22;551;48.524;9.056;2023-02-25T14:04:34;9.30;1.00
506;DHT22;551;48.524;9.056;2023-02-25T14:07:21;9.10;1.00
506;DHT22;551;48.524;9.056;2023-02-25T14:15:51;8.40;1.00
506;DHT22;551;48.524;9.056;2023-02-25T14:18:33;8.40;1.00
506;DHT22;551;48.524;9.056;2023-02-25T14:27:23;8.00;1.00
506;DHT22;551;48.524;9.056;2023-02-25T14:33:08;8.00;1.00
506;DHT22;551;48.524;9.056;2023-02-25T14:36:11;7.90;1.00
506;DHT22;551;48.524;9.056;2023-02-25T14:41:50;7.70;1.00
506;DHT22;551;48.524;9.056;2023-02-25T14:44:28;7.70;1.00
506;DHT22;551;48.524;9.056;2023-02-25T14:47:09;7.70;1.00
506;DHT22;551;48.524;9.056;2023-02-25T14:50:32;7.80;1.00
506;DHT22;551;48.524;9.056;2023-02-25T14:52:59;7.90;1.00
506;DHT22;551;48.524;9.056;2023-02-25T14:55:49;8.00;1.00
506;DHT22;551;48.524;9.056;2023-02-25T14:59:05;8.10;1.00
506;DHT22;551;48.524;9.056;2023-02-25T15:07:39;8.10;1.00
506;DHT22;551;48.524;9.056;2023-02-25T15:10:20;8.10;1.00
506;DHT22;551;48.524;9.056;2023-02-25T15:21:37;7.60;1.00
506;DHT22;551;48.524;9.056;2023-02-25T15:24:53;7.70;1.00
506;DHT22;551;48.524;9.056;2023-02-25T15:26:55;7.70;1.00
506;DHT22;551;48.524;9.056;2023-02-25T15:32:23;7.80;1.00
506;DHT22;551;48.524;9.056;2023-02-25T15:35:00;7.80;1.00
506;DHT22;551;48.524;9.056;2023-02-25T15:37:33;8.00;1.00
506;DHT22;551;48.524;9.056;2023-02-25T15:42:57;8.10;1.00
506;DHT22;551;48.524;9.056;2023-02-25T15:53:09;8.10;1.00
506;DHT22;551;48.524;9.056;2023-02-25T15:55:41;8.00;1.00
506;DHT22;551;48.524;9.056;2023-02-25T16:14:18;7.70;1.00
506;DHT22;551;48.524;9.056;2023-02-25T16:16:59;7.70;1.00
506;DHT22;551;48.524;9.056;2023-02-25T16:19:30;7.70;1.00
506;DHT22;551;48.524;9.056;2023-02-25T16:22:03;7.70;1.00
506;DHT22;551;48.524;9.056;2023-02-25T16:24:32;7.70;1.00
506;DHT22;551;48.524;9.056;2023-02-25T16:27:07;7.70;1.00
506;DHT22;551;48.524;9.056;2023-02-25T16:35:19;7.70;1.00
506;DHT22;551;48.524;9.056;2023-02-25T16:37:51;7.70;1.00
506;DHT22;551;48.524;9.056;2023-02-25T16:40:33;7.70;1.00
506;DHT22;551;48.524;9.056;2023-02-25T16:42:59;7.70;1.00
506;DHT22;551;48.524;9.056;2023-02-25T16:45:36;7.50;1.00
506;DHT22;551;48.524;9.056;2023-02-25T16:48:16;7.50;1.00
506;DHT22;551;48.524;9.056;2023-02-25T16:50:47;7.50;1.00
506;DHT22;551;48.524;9.056;2023-02-25T16:53:22;7.50;1.00
506;DHT22;551;48.524;9.056;2023-02-25T16:55:49;7.50;1.00
506;DHT22;551;48.524;9.056;2023-02-25T16:58:22;7.40;1.00
506;DHT22;551;48.524;9.056;2023-02-25T17:00:54;7.30;1.00
506;DHT22;551;48.524;9.056;2023-02-25T17:03:22;7.30;1.00
506;DHT22;551;48.524;9.056;2023-02-25T17:06:18;7.20;1.00
506;DHT22;551;48.524;9.056;2023-02-25T17:08:46;7.10;1.00
506;DHT22;551;48.524;9.056;2023-02-25T17:11:20;7.10;1.00
506;DHT22;551;48.524;9.056;2023-02-25T17:13:47;7.10;1.00
506;DHT22;551;48.524;9.056;2023-02-25T17:16:36;7.00;1.00
506;DHT22;551;48.524;9.056;2023-02-25T17:19:07;7.00;1.00
506;DHT22;551;48.524;9.056;2023-02-25T17:21:40;6.90;1.00
506;DHT22;551;48.524;9.056;2023-02-25T17:24:12;6.80;1.00
506;DHT22;551;48.524;9.056;2023-02-25T17:26:40;6.80;1.00
506;DHT22;551;48.524;9.056;2023-02-25T17:29:11;6.80;1.00
506;DHT22;551;48.524;9.056;2023-02-25T17:31:46;6.80;1.00
506;DHT22;551;48.524;9.056;2023-02-25T17:34:15;6.70;1.00
506;DHT22;551;48.524;9.056;2023-02-25T17:36:42;6.70;1.00
506;DHT22;551;48.524;9.056;2023-02-25T17:39:14;6.70;1.00
506;DHT22;551;48.524;9.056;2023-02-25T17:41:42;6.70;1.00
506;DHT22;551;48.524;9.056;2023-02-25T17:44:57;6.60;1.00
506;DHT22;551;48.524;9.056;2023-02-25T17:46:58;6.60;1.00
506;DHT22;551;48.524;9.056;2023-02-25T17:49:29;6.50;1.00
506;DHT22;551;48.524;9.056;2023-02-25T17:51:58;6.50;1.00
506;DHT22;551;48.524;9.056;2023-02-25T17:54:26;6.40;1.00
506;DHT22;551;48.524;9.056;2023-02-25T17:59:40;6.30;1.00
506;DHT22;551;48.524;9.056;2023-02-25T18:05:21;6.20;1.00
506;DHT22;551;48.524;9.056;2023-02-25T18:12:47;6.30;1.00
506;DHT22;551;48.524;9.056;2023-02-25T18:15:16;6.30;1.00
506;DHT22;551;48.524;9.056;2023-02-25T18:17:47;6.30;1.00
506;DHT22;551;48.524;9.056;2023-02-25T18:20:39;6.40;1.00
506;DHT22;551;48.524;9.056;2023-02-25T18:25:44;6.50;1.00
506;DHT22;551;48.524;9.056;2023-02-25T18:28:14;6.50;1.00
506;DHT22;551;48.524;9.056;2023-02-25T18:30:40;6.50;1.00
506;DHT22;551;48.524;9.056;2023-02-25T18:33:05;6.30;1.00
506;DHT22;551;48.524;9.056;2023-02-25T18:35:32;6.10;1.00
506;DHT22;551;48.524;9.056;2023-02-25T18:37:59;5.90;1.00
506;DHT22;551;48.524;9.056;2023-02-25T18:42:55;5.70;1.00
506;DHT22;551;48.524;9.056;2023-02-25T18:45:22;5.60;1.00
506;DHT22;551;48.524;9.056;2023-02-25T18:47:49;5.40;1.00
506;DHT22;551;48.524;9.056;2023-02-25T18:50:16;5.30;1.00
506;DHT22;551;48.524;9.056;2023-02-25T18:52:42;5.10;1.00
506;DHT22;551;48.524;9.056;2023-02-25T18:55:11;5.10;1.00
506;DHT22;551;48.524;9.056;2023-02-25T18:57:39;5.00;1.00
506;DHT22;551;48.524;9.056;2023-02-25T19:00:05;4.90;1.00
506;DHT22;551;48.524;9.056;2023-02-25T19:02:38;4.80;1.00
506;DHT22;551;48.524;9.056;2023-02-25T19:05:09;4.80;1.00
506;DHT22;551;48.524;9.056;2023-02-25T19:07:34;4.80;1.00
506;DHT22;551;48.524;9.056;2023-02-25T19:10:00;4.70;1.00
506;DHT22;551;48.524;9.056;2023-02-25T19:12:28;4.70;1.00
506;DHT22;551;48.524;9.056;2023-02-25T19:15:03;4.70;1.00
506;DHT22;551;48.524;9.056;2023-02-25T19:17:29;4.60;1.00
506;DHT22;551;48.524;9.056;2023-02-25T19:19:55;4.60;1.00
506;DHT22;551;48.524;9.056;2023-02-25T19:22:22;4.50;1.00
506;DHT22;551;48.524;9.056;2023-02-25T19:24:49;4.50;1.00
506;DHT22;551;48.524;9.056;2023-02-25T19:27:24;4.50;1.00
506;DHT22;551;48.524;9.056;2023-02-25T19:29:52;4.40;1.00
506;DHT22;551;48.524;9.056;2023-02-25T19:32:18;4.40;1.00
506;DHT22;551;48.524;9.056;2023-02-25T19:34:45;4.40;1.00
506;DHT22;551;48.524;9.056;2023-02-25T19:37:12;4.40;1.00
506;DHT22;551;48.524;9.056;2023-02-25T19:39:38;4.40;1.00
506;DHT22;551;48.524;9.056;2023-02-25T19:42:04;4.50;1.00
506;DHT22;551;48.524;9.056;2023-02-25T19:44:31;4.60;1.00
506;DHT22;551;48.524;9.056;2023-02-25T19:46:57;4.50;1.00
506;DHT22;551;48.524;9.056;2023-02-25T19:49:23;4.60;1.00
506;DHT22;551;48.524;9.056;2023-02-25T19:51:48;4.60;1.00
506;DHT22;551;48.524;9.056;2023-02-25T19:54:14;4.50;1.00
506;DHT22;551;48.524;9.056;2023-02-25T19:56:40;4.50;1.00
506;DHT22;551;48.524;9.056;2023-02-25T19:59:06;4.60;1.00
506;DHT22;551;48.524;9.056;2023-02-25T20:01:33;4.60;1.00
506;DHT22;551;48.524;9.056;2023-02-25T20:03:58;4.50;1.00
506;DHT22;551;48.524;9.056;2023-02-25T20:06:24;4.50;1.00
506;DHT22;551;48.524;9.056;2023-02-25T20:08:50;4.50;1.00
506;DHT22;551;48.524;9.056;2023-02-25T20:11:18;4.50;1.00
506;DHT22;551;48.524;9.056;2023-02-25T20:13:48;4.40;1.00
506;DHT22;551;48.524;9.056;2023-02-25T20:16:13;4.50;1.00
506;DHT22;551;48.524;9.056;2023-02-25T20:18:39;4.50;1.00
506;DHT22;551;48.524;9.056;2023-02-25T20:21:05;4.50;1.00
506;DHT22;551;48.524;9.056;2023-02-25T20:23:30;4.50;1.00
506;DHT22;551;48.524;9.056;2023-02-25T20:26:04;4.50;1.00
506;DHT22;551;48.524;9.056;2023-02-25T20:28:30;4.50;1.00
506;DHT22;551;48.524;9.056;2023-02-25T20:31:07;4.50;1.00
506;DHT22;551;48.524;9.056;2023-02-25T20:33:33;4.50;1.00
506;DHT22;551;48.524;9.056;2023-02-25T20:35:59;4.50;1.00
506;DHT22;551;48.524;9.056;2023-02-25T20:38:35;4.60;1.00
506;DHT22;551;48.524;9.056;2023-02-25T20:41:02;4.50;1.00
506;DHT22;551;48.524;9.056;2023-02-25T20:43:28;4.50;1.00
506;DHT22;551;48.524;9.056;2023-02-25T20:45:53;4.40;1.00
506;DHT22;551;48.524;9.056;2023-02-25T20:48:26;4.40;1.00
506;DHT22;551;48.524;9.056;2023-02-25T20:50:52;4.30;1.00
506;DHT22;551;48.524;9.056;2023-02-25T20:53:18;4.30;1.00
506;DHT22;551;48.524;9.056;2023-02-25T20:55:43;4.30;1.00
506;DHT22;551;48.524;9.056;2023-02-25T20:58:09;4.30;1.00